Time;durP1;ratioP1;P1;durP2;ratioP2;P2;SDS_P1;SDS_P2;PMS_P1;PMS_P2;Temp;Humidity;BMP_temperature;BMP_pressure;BME280_temperature;BME280_humidity;BME280_pressure;Samples;Min_cycle;Max_cycle;Signal;HPM_P1;HPM_P2
2020/12/28 00:01:28;;;;;;;6.75;4.88;;;;;;;22.54;41.93;93958.25;5052075;28;20413;-71
2020/12/28 00:03:53;;;;;;;6.10;4.60;;;;;;;22.52;42.05;93965.50;5051900;28;20071;-71
2020/12/28 00:06:19;;;;;;;6.25;4.65;;;;;;;22.39;42.20;93924.75;5051806;28;20035;-71
2020/12/28 00:08:44;;;;;;;7.47;4.60;;;;;;;22.47;41.98;93952.75;5051630;28;20025;-71
2020/12/28 00:11:10;;;;;;;5.55;4.32;;;;;;;22.46;41.83;93967.59;5052019;28;20021;-72
2020/12/28 00:13:35;;;;;;;6.15;4.90;;;;;;;22.34;42.13;93944.63;5050661;28;20033;-71
2020/12/28 00:16:01;;;;;;;5.53;4.28;;;;;;;22.43;42.09;93968.66;5050446;28;20123;-71
2020/12/28 00:18:26;;;;;;;6.50;5.18;;;;;;;22.41;42.28;93976.63;5050481;28;20501;-71
2020/12/28 00:20:52;;;;;;;7.00;5.35;;;;;;;22.39;42.27;93981.88;5051488;28;20025;-71
2020/12/28 00:23:17;;;;;;;6.47;5.05;;;;;;;22.38;42.44;94004.88;5051470;28;20037;-71
2020/12/28 00:25:42;;;;;;;7.32;5.05;;;;;;;22.35;42.29;93995.03;5051531;28;20041;-71
2020/12/28 00:28:08;;;;;;;5.50;4.38;;;;;;;22.34;42.42;93971.81;5051643;28;20021;-71
2020/12/28 00:30:33;;;;;;;6.72;4.90;;;;;;;22.33;42.12;93959.50;5051455;28;20087;-71
2020/12/28 00:32:59;;;;;;;5.97;4.75;;;;;;;22.30;42.44;93963.28;5051501;28;20032;-71
2020/12/28 00:35:24;;;;;;;6.63;4.57;;;;;;;22.29;42.38;93964.50;5051375;28;20024;-71
2020/12/28 00:37:50;;;;;;;6.53;4.82;;;;;;;22.28;42.43;93957.59;5051291;28;20021;-71
2020/12/28 00:40:15;;;;;;;6.97;4.88;;;;;;;22.26;42.57;93960.13;5050057;28;20060;-71
2020/12/28 00:42:41;;;;;;;6.32;4.88;;;;;;;22.24;42.53;93946.34;5051297;28;20489;-71
2020/12/28 00:45:07;;;;;;;6.78;4.88;;;;;;;22.11;42.41;93927.28;5051141;28;20036;-71
2020/12/28 00:47:33;;;;;;;7.18;4.75;;;;;;;22.07;42.69;93926.88;5050006;28;20492;-71
2020/12/28 00:49:58;;;;;;;5.97;4.80;;;;;;;22.20;42.63;93959.50;5032931;28;20028;-71
2020/12/28 00:52:24;;;;;;;6.55;4.72;;;;;;;22.13;42.57;93951.97;5051033;28;20013;-71
2020/12/28 00:54:49;;;;;;;6.57;4.82;;;;;;;22.11;42.40;93946.31;5049885;28;20078;-71
2020/12/28 00:57:15;;;;;;;6.88;5.28;;;;;;;22.14;42.84;93953.44;5049772;28;20024;-71
2020/12/28 00:59:40;;;;;;;6.47;4.78;;;;;;;22.15;42.65;93948.72;5051092;28;20047;-71
2020/12/28 01:02:06;;;;;;;6.32;4.80;;;;;;;22.14;43.04;93945.28;5050831;28;20512;-71
2020/12/28 01:04:31;;;;;;;6.45;5.00;;;;;;;22.11;42.76;93949.06;5049538;28;20489;-71
2020/12/28 01:06:57;;;;;;;7.30;5.15;;;;;;;22.11;42.70;93959.91;5050896;28;20493;-71
2020/12/28 01:09:22;;;;;;;6.60;4.57;;;;;;;22.07;42.40;93958.78;5050796;28;20094;-71
2020/12/28 01:11:48;;;;;;;6.03;4.57;;;;;;;22.07;43.00;93970.38;5049343;28;20486;-70
2020/12/28 01:14:13;;;;;;;7.03;4.90;;;;;;;22.06;42.81;93971.66;5050854;28;20415;-71
2020/12/28 01:16:39;;;;;;;6.35;4.88;;;;;;;22.06;42.84;93968.94;5050333;28;20045;-71
2020/12/28 01:19:04;;;;;;;7.13;4.82;;;;;;;22.06;42.78;93979.06;5049273;28;20024;-71
2020/12/28 01:21:30;;;;;;;7.90;5.00;;;;;;;22.00;42.97;93959.41;5050473;28;20020;-71
2020/12/28 01:23:55;;;;;;;5.22;4.50;;;;;;;22.03;42.65;93958.34;5050453;28;20432;-71
2020/12/28 01:26:21;;;;;;;5.82;4.82;;;;;;;22.01;42.85;93967.03;5050537;28;20021;-71
2020/12/28 01:28:47;;;;;;;6.05;4.88;;;;;;;22.00;42.93;93967.56;5049179;28;20433;-71
2020/12/28 01:31:12;;;;;;;6.97;4.63;;;;;;;21.87;42.76;93955.97;5050019;28;20025;-72
2020/12/28 01:33:37;;;;;;;6.75;4.90;;;;;;;21.98;42.88;93968.09;5048929;28;20036;-71
2020/12/28 01:36:03;;;;;;;6.88;4.88;;;;;;;21.97;42.82;93972.09;5050239;28;20020;-70
2020/12/28 01:38:29;;;;;;;7.20;5.40;;;;;;;21.97;42.89;93966.66;5050318;28;20017;-71
2020/12/28 01:40:55;;;;;;;6.00;4.55;;;;;;;21.94;42.87;93967.69;5048806;28;20017;-71
2020/12/28 01:43:21;;;;;;;6.50;4.60;;;;;;;21.76;42.88;93939.91;5048994;28;20133;-71
2020/12/28 01:45:46;;;;;;;7.70;4.47;;;;;;;21.80;42.98;93938.31;5048912;28;20024;-71
2020/12/28 01:48:12;;;;;;;7.28;4.93;;;;;;;21.92;42.96;93953.88;5032315;28;20382;-71
2020/12/28 01:50:37;;;;;;;6.45;4.43;;;;;;;21.89;42.89;93950.75;5048812;28;20012;-71
2020/12/28 01:53:03;;;;;;;6.22;4.25;;;;;;;21.77;42.98;93935.94;5048797;28;20028;-71
2020/12/28 01:55:30;;;;;;;7.10;4.30;;;;;;;21.89;42.97;93948.78;5048678;28;20021;-70
2020/12/28 01:57:55;;;;;;;5.20;4.40;;;;;;;21.87;43.10;93951.28;5049782;28;20072;-71
2020/12/28 02:00:21;;;;;;;5.78;4.30;;;;;;;21.88;43.05;93941.16;5048722;28;20060;-70
2020/12/28 02:02:46;;;;;;;5.35;4.45;;;;;;;21.75;42.94;93927.56;5048826;28;20047;-71
2020/12/28 02:05:12;;;;;;;6.63;4.32;;;;;;;21.85;43.05;93931.31;5048645;28;20024;-71
2020/12/28 02:07:39;;;;;;;5.43;4.00;;;;;;;21.81;43.07;93925.47;5048652;28;20067;-71
2020/12/28 02:10:06;;;;;;;5.93;4.45;;;;;;;21.83;43.09;93922.97;5048614;28;20031;-72
2020/12/28 02:12:31;;;;;;;5.53;4.13;;;;;;;21.83;43.08;93931.13;5048519;28;20102;-71
2020/12/28 02:14:57;;;;;;;5.53;4.18;;;;;;;21.82;43.02;93935.09;5049684;28;20030;-71
2020/12/28 02:17:24;;;;;;;4.95;4.05;;;;;;;21.82;42.85;93926.94;5049528;28;20521;-70
2020/12/28 02:19:49;;;;;;;5.70;4.43;;;;;;;21.80;43.13;93918.59;5049824;28;20530;-71
2020/12/28 02:22:15;;;;;;;6.18;4.13;;;;;;;21.78;43.04;93926.50;5049869;28;20021;-71
2020/12/28 02:24:40;;;;;;;7.25;5.05;;;;;;;21.55;42.93;93898.31;5048459;28;20055;-70
2020/12/28 02:27:06;;;;;;;5.90;4.20;;;;;;;21.76;43.23;93937.19;5048425;28;20037;-71
2020/12/28 02:29:31;;;;;;;6.05;4.25;;;;;;;21.76;43.25;93937.91;5049593;28;20029;-71
2020/12/28 02:31:59;;;;;;;5.38;3.80;;;;;;;21.65;43.06;93923.81;5048346;28;20021;-71
2020/12/28 02:34:25;;;;;;;4.82;3.67;;;;;;;21.75;43.12;93927.56;5048464;28;20033;-71
2020/12/28 02:36:50;;;;;;;5.60;4.05;;;;;;;21.71;43.26;93921.72;5049275;28;20413;-71
2020/12/28 02:39:16;;;;;;;6.63;4.72;;;;;;;21.71;42.93;93932.59;5049753;28;20032;-71
2020/12/28 02:41:41;;;;;;;5.43;4.43;;;;;;;21.70;43.04;93936.56;5049497;28;20025;-71
2020/12/28 02:44:06;;;;;;;5.10;3.80;;;;;;;21.71;43.20;93946.19;5051536;28;20036;-71
2020/12/28 02:46:32;;;;;;;6.70;4.22;;;;;;;21.51;43.15;93935.97;5053354;28;20017;-71
2020/12/28 02:48:57;;;;;;;6.30;4.22;;;;;;;21.71;43.22;93959.75;5052199;28;20031;-71
2020/12/28 02:51:23;;;;;;;5.32;4.15;;;;;;;21.70;43.04;93966.44;5053420;28;20024;-71
2020/12/28 02:53:48;;;;;;;5.32;4.18;;;;;;;21.69;43.04;93954.13;5053478;28;20029;-71
2020/12/28 02:56:14;;;;;;;5.50;4.03;;;;;;;21.68;43.18;93958.09;5052057;28;20021;-71
2020/12/28 02:58:39;;;;;;;5.13;4.22;;;;;;;21.66;43.28;93958.63;5053062;28;20083;-71
2020/12/28 03:01:05;;;;;;;5.93;4.28;;;;;;;21.50;43.31;93937.91;5052870;28;20029;-70
2020/12/28 03:03:30;;;;;;;4.68;3.78;;;;;;;21.64;43.30;93966.56;5053172;28;20032;-71
2020/12/28 03:05:56;;;;;;;4.95;3.80;;;;;;;21.50;43.14;93956.22;5053188;28;20040;-71
2020/12/28 03:08:21;;;;;;;5.82;3.97;;;;;;;21.65;43.27;93972.72;5053092;28;20035;-71
2020/12/28 03:10:47;;;;;;;6.13;4.05;;;;;;;21.63;43.29;93956.94;5053166;28;20048;-71
2020/12/28 03:13:12;;;;;;;5.80;4.32;;;;;;;21.48;43.51;93937.72;5053164;28;20029;-71
2020/12/28 03:15:38;;;;;;;5.82;4.13;;;;;;;21.46;43.28;93940.25;5052784;28;20041;-71
2020/12/28 03:18:03;;;;;;;4.50;3.45;;;;;;;21.59;43.31;93947.66;5052708;28;20029;-71
2020/12/28 03:20:28;;;;;;;5.70;3.95;;;;;;;21.61;43.43;93939.69;5052652;28;20021;-72
2020/12/28 03:22:54;;;;;;;5.07;3.90;;;;;;;21.60;43.36;93927.38;5052538;28;20075;-72
2020/12/28 03:25:19;;;;;;;5.05;4.00;;;;;;;21.56;43.16;93943.25;5053043;28;20029;-72
2020/12/28 03:27:45;;;;;;;5.13;3.80;;;;;;;21.59;43.25;93966.66;5052577;28;20029;-71
2020/12/28 03:30:10;;;;;;;4.90;4.00;;;;;;;21.59;43.34;93963.94;5052691;28;20090;-71
2020/12/28 03:32:36;;;;;;;4.65;3.78;;;;;;;21.58;43.41;93946.19;5052615;28;20021;-71
2020/12/28 03:35:01;;;;;;;5.55;3.92;;;;;;;21.58;43.31;93940.75;5052552;28;20024;-71
2020/12/28 03:37:27;;;;;;;5.63;4.30;;;;;;;21.39;43.63;93912.94;5051206;28;20029;-71
2020/12/28 03:39:52;;;;;;;5.78;4.13;;;;;;;21.55;43.33;93936.34;5052540;28;20044;-71
2020/12/28 03:42:18;;;;;;;5.68;4.28;;;;;;;21.46;43.50;93928.63;5052570;28;20083;-71
2020/12/28 03:44:43;;;;;;;5.70;4.18;;;;;;;21.40;43.18;93924.53;5051232;28;20060;-71
2020/12/28 03:47:09;;;;;;;5.22;4.05;;;;;;;21.54;43.42;93945.78;5052285;28;20029;-72
2020/12/28 03:49:34;;;;;;;5.20;3.58;;;;;;;21.55;43.31;93947.22;5052388;28;20025;-71
2020/12/28 03:52:00;;;;;;;4.63;3.78;;;;;;;21.58;43.48;93951.59;5052394;28;20464;-71
2020/12/28 03:54:25;;;;;;;5.18;3.58;;;;;;;21.64;43.67;93954.94;5053377;28;20486;-71
2020/12/28 03:56:50;;;;;;;5.30;3.83;;;;;;;21.68;43.30;93949.94;5054980;28;20025;-71
2020/12/28 03:59:16;;;;;;;4.60;3.50;;;;;;;21.68;43.30;93947.22;5053503;28;20039;-71
2020/12/28 04:01:42;;;;;;;4.03;3.38;;;;;;;21.75;43.37;93954.72;5051174;28;20017;-71
2020/12/28 04:04:07;;;;;;;5.00;3.63;;;;;;;21.79;43.39;93955.16;5051859;28;20090;-71
2020/12/28 04:06:33;;;;;;;4.53;3.40;;;;;;;21.75;43.28;93949.28;5051891;28;20118;-71
2020/12/28 04:08:58;;;;;;;4.85;3.50;;;;;;;21.84;43.18;93962.47;5051684;28;20017;-72
2020/12/28 04:11:23;;;;;;;4.85;3.30;;;;;;;21.90;43.13;93971.25;5051994;28;20017;-72
2020/12/28 04:13:49;;;;;;;4.65;3.53;;;;;;;21.92;43.05;93975.63;5051743;28;20029;-72
2020/12/28 04:16:15;;;;;;;6.38;3.65;;;;;;;21.94;42.98;93978.56;5051535;28;20044;-71
2020/12/28 04:18:40;;;;;;;4.20;3.20;;;;;;;21.97;43.13;93988.38;5051669;28;20029;-72
2020/12/28 04:21:06;;;;;;;3.92;3.10;;;;;;;22.00;42.89;93987.34;5051718;28;20409;-71
2020/12/28 04:23:31;;;;;;;5.13;3.47;;;;;;;22.02;43.10;93973.94;5051813;28;20448;-71
2020/12/28 04:25:57;;;;;;;5.28;3.40;;;;;;;22.04;42.95;93963.28;5051390;28;20489;-71
2020/12/28 04:28:22;;;;;;;4.32;3.42;;;;;;;22.07;42.70;93967.66;5051595;28;20025;-71
2020/12/28 04:30:48;;;;;;;4.03;3.00;;;;;;;22.06;42.82;93968.94;5051337;28;20025;-72
2020/12/28 04:33:13;;;;;;;4.13;3.00;;;;;;;22.09;42.99;93973.31;5051447;28;20020;-71
2020/12/28 04:35:39;;;;;;;5.20;3.40;;;;;;;22.10;42.96;93979.47;5050137;28;20023;-72
2020/12/28 04:38:04;;;;;;;3.40;2.92;;;;;;;22.12;42.89;93974.25;5051269;28;20021;-71
2020/12/28 04:40:30;;;;;;;4.18;3.00;;;;;;;22.10;42.95;93969.31;5051335;28;20056;-71
2020/12/28 04:42:56;;;;;;;5.07;3.20;;;;;;;22.14;42.83;93969.75;5051152;28;20485;-71
2020/12/28 04:45:21;;;;;;;4.57;3.33;;;;;;;22.17;42.76;93974.13;5051319;28;20083;-71
2020/12/28 04:47:47;;;;;;;3.97;2.90;;;;;;;22.18;42.59;93986.47;5049959;28;20045;-71
2020/12/28 04:50:14;;;;;;;4.70;3.38;;;;;;;22.21;42.71;93985.47;5049773;28;20025;-72
2020/12/28 04:52:39;;;;;;;3.90;2.90;;;;;;;22.23;42.60;93988.38;5051195;28;20237;-71
2020/12/28 04:55:05;;;;;;;4.05;2.95;;;;;;;22.23;42.87;94001.97;5049768;28;20024;-72
2020/12/28 04:57:30;;;;;;;3.75;3.00;;;;;;;22.24;42.63;93995.28;5051057;28;20040;-71
2020/12/28 04:59:56;;;;;;;4.35;2.80;;;;;;;22.25;42.68;93985.84;5049791;28;20413;-71
2020/12/28 05:02:22;;;;;;;3.53;2.80;;;;;;;22.25;42.71;93988.56;5050880;28;20112;-71
2020/12/28 05:04:48;;;;;;;3.95;2.72;;;;;;;22.27;42.73;93988.78;5050787;28;20033;-72
2020/12/28 05:07:13;;;;;;;3.63;2.80;;;;;;;22.27;42.65;93991.50;5050144;28;20437;-71
2020/12/28 05:09:39;;;;;;;4.35;2.90;;;;;;;22.24;42.63;93995.28;5050780;28;20417;-71
2020/12/28 05:12:04;;;;;;;4.35;2.75;;;;;;;22.30;42.65;94009.50;5050457;28;20017;-71
2020/12/28 05:14:30;;;;;;;4.80;3.17;;;;;;;22.32;42.49;94011.69;5050811;28;20028;-72
2020/12/28 05:17:00;;;;;;;3.58;2.70;;;;;;;22.34;42.56;94004.44;5049515;28;20049;-71
2020/12/28 05:19:25;;;;;;;;;;;;;;;22.36;42.72;94018.28;5051295;28;20032;-71
2020/12/28 05:21:55;;;;;;;4.03;2.63;;;;;;;22.37;42.51;94025.16;5050355;28;19908;-72
2020/12/28 05:24:20;;;;;;;3.43;2.60;;;;;;;22.36;42.44;94007.41;5050452;28;20040;-71
2020/12/28 05:26:46;;;;;;;3.40;2.60;;;;;;;22.22;42.45;93997.78;5050414;28;20112;-71
2020/12/28 05:29:13;;;;;;;4.35;2.67;;;;;;;22.37;42.55;94046.94;5050379;28;20025;-71
2020/12/28 05:31:39;;;;;;;3.65;2.90;;;;;;;22.38;42.47;94059.28;5050449;28;20085;-72
2020/12/28 05:34:05;;;;;;;3.47;2.80;;;;;;;22.38;42.69;94048.41;5050425;28;20111;-71
2020/12/28 05:36:31;;;;;;;3.65;2.65;;;;;;;22.38;42.42;94053.13;5049106;28;20094;-71
2020/12/28 05:38:56;;;;;;;3.97;2.60;;;;;;;22.37;42.29;94052.38;5048276;28;20494;-72
2020/12/28 05:41:28;;;;;;;3.83;2.80;;;;;;;22.39;42.37;94047.16;5050120;28;20033;-71
2020/12/28 05:43:53;;;;;;;4.35;3.00;;;;;;;22.39;42.42;94055.31;5050141;28;20028;-71
2020/12/28 05:46:25;;;;;;;2.83;2.30;;;;;;;22.40;42.46;94045.88;5048928;28;20031;-71
2020/12/28 05:48:54;;;;;;;3.38;2.40;;;;;;;22.40;42.46;94054.03;5050097;28;20095;-71
2020/12/28 05:51:19;;;;;;;3.92;2.67;;;;;;;22.41;42.44;94060.94;5050272;28;20028;-71
2020/12/28 05:53:45;;;;;;;4.07;2.83;;;;;;;22.30;42.16;94042.13;5050567;28;20021;-71
2020/12/28 05:56:10;;;;;;;4.22;2.90;;;;;;;22.45;42.25;94059.38;5065861;28;20025;-71
2020/12/28 05:58:36;;;;;;;3.20;2.70;;;;;;;22.49;42.49;94059.03;5066685;28;20560;-73
2020/12/28 06:01:01;;;;;;;3.33;2.65;;;;;;;22.51;42.51;94061.97;5051746;28;20029;-72
2020/12/28 06:03:28;;;;;;;3.92;2.80;;;;;;;22.48;42.43;94057.56;5052150;28;20469;-73
2020/12/28 06:05:54;;;;;;;3.58;2.75;;;;;;;22.38;42.35;94053.84;5053198;28;20024;-69
2020/12/28 06:08:19;;;;;;;3.75;2.60;;;;;;;22.49;42.20;94070.66;5049408;28;20025;-72
2020/12/28 06:10:45;;;;;;;3.50;2.40;;;;;;;22.50;42.35;94071.41;5050008;28;20111;-70
2020/12/28 06:13:22;;;;;;;3.83;2.70;;;;;;;22.50;42.25;94093.16;5050950;28;20017;-72
2020/12/28 06:15:58;;;;;;;3.25;2.50;;;;;;;22.52;42.35;94090.63;5047835;28;20087;-73
2020/12/28 06:18:24;;;;;;;3.30;2.60;;;;;;;22.53;42.31;94083.94;5051162;28;20091;-75
2020/12/28 06:20:49;;;;;;;4.32;2.70;;;;;;;22.50;42.17;94091.16;5054061;28;20544;-71
2020/12/28 06:23:14;;;;;;;3.78;3.00;;;;;;;22.51;41.79;94081.75;5069015;28;20024;-71
2020/12/28 06:25:40;;;;;;;3.95;2.95;;;;;;;22.52;41.84;94088.63;5051991;28;20475;-71
2020/12/28 06:28:05;;;;;;;2.58;2.30;;;;;;;22.54;42.02;94101.72;5039339;28;20533;-70
2020/12/28 06:30:31;;;;;;;3.50;2.42;;;;;;;22.53;42.00;94114.59;5052356;28;20040;-71
2020/12/28 06:33:04;;;;;;;3.10;2.25;;;;;;;22.52;41.77;94102.25;5052013;28;20059;-71
2020/12/28 06:35:29;;;;;;;4.18;2.70;;;;;;;22.52;42.28;94101.53;5053542;28;20021;-71
2020/12/28 06:37:55;;;;;;;2.95;2.40;;;;;;;22.52;42.17;94117.84;5053297;28;20170;-73
2020/12/28 06:40:34;;;;;;;3.95;2.33;;;;;;;22.51;42.15;94105.50;5068821;28;20111;-70
2020/12/28 06:43:07;;;;;;;3.65;2.60;;;;;;;22.52;42.35;94082.47;5053018;28;20095;-70
2020/12/28 06:45:32;;;;;;;3.65;2.63;;;;;;;22.50;42.43;94104.03;5053215;28;20037;-70
2020/12/28 06:47:58;;;;;;;3.72;2.40;;;;;;;22.52;42.15;94128.72;5051624;28;20031;-72
2020/12/28 06:50:23;;;;;;;3.38;2.20;;;;;;;22.52;42.24;94112.41;5064307;28;20501;-71
2020/12/28 06:52:52;;;;;;;3.70;2.67;;;;;;;22.50;42.35;94093.16;5052872;28;20029;-71
2020/12/28 06:55:17;;;;;;;3.10;2.10;;;;;;;22.52;42.53;94085.19;5052709;28;20021;-71
2020/12/28 06:57:43;;;;;;;3.15;2.38;;;;;;;22.39;42.58;94066.19;5052646;28;20414;-70
2020/12/28 07:00:17;;;;;;;3.05;2.40;;;;;;;22.55;42.30;94100.47;5052775;28;20517;-70
2020/12/28 07:02:53;;;;;;;3.70;2.40;;;;;;;22.35;42.39;94087.53;5050538;28;20020;-71
2020/12/28 07:05:22;;;;;;;4.00;2.55;;;;;;;22.61;42.55;94098.38;5051855;28;20032;-71
2020/12/28 07:07:48;;;;;;;3.60;2.47;;;;;;;22.64;42.60;94081.00;5053762;28;20058;-69
2020/12/28 07:10:19;;;;;;;4.68;3.40;;;;;;;22.56;40.08;94091.06;5053439;28;20034;-69
2020/12/28 07:12:45;;;;;;;3.45;2.10;;;;;;;22.56;41.40;94082.91;5053486;28;20021;-71
2020/12/28 07:15:10;;;;;;;3.13;2.15;;;;;;;22.61;41.88;94103.81;5053878;28;20845;-71
2020/12/28 07:17:36;;;;;;;3.55;2.55;;;;;;;22.66;41.98;94102.97;5052590;28;20521;-70
2020/12/28 07:20:06;;;;;;;3.85;2.17;;;;;;;22.73;42.11;94121.38;5054191;28;20021;-71
2020/12/28 07:22:35;;;;;;;3.45;2.50;;;;;;;22.81;42.10;94111.31;5053801;28;20033;-70
2020/12/28 07:25:01;;;;;;;4.28;2.28;;;;;;;22.88;41.65;94088.91;5054043;28;20029;-71
2020/12/28 07:27:26;;;;;;;3.75;2.20;;;;;;;22.96;41.73;94083.03;5053482;28;20032;-71
2020/12/28 07:29:53;;;;;;;3.20;2.40;;;;;;;23.04;41.96;94096.72;5068306;28;20017;-71
2020/12/28 07:32:18;;;;;;;3.53;2.15;;;;;;;23.15;41.54;94105.41;5051704;28;20086;-70
2020/12/28 07:34:51;;;;;;;3.85;2.42;;;;;;;23.20;41.82;94104.53;5052366;28;20021;-70
2020/12/28 07:37:17;;;;;;;2.60;2.10;;;;;;;23.38;41.83;94106.34;5031913;28;20074;-69
2020/12/28 07:39:43;;;;;;;3.42;2.33;;;;;;;23.49;41.12;94108.78;5032503;28;20033;-71
2020/12/28 07:42:08;;;;;;;3.28;2.42;;;;;;;23.55;41.11;94125.75;5032969;28;20107;-71
2020/12/28 07:44:33;;;;;;;3.42;1.98;;;;;;;23.66;41.01;94150.78;5031848;28;20103;-72
2020/12/28 07:47:01;;;;;;;2.50;2.17;;;;;;;23.72;40.88;94148.66;5015256;28;20123;-71
2020/12/28 07:49:28;;;;;;;3.15;2.60;;;;;;;23.85;40.37;94123.31;5032074;28;20057;-71
2020/12/28 07:52:00;;;;;;;4.40;2.50;;;;;;;23.83;40.32;94101.31;5039396;28;20040;-72
2020/12/28 07:54:26;;;;;;;4.05;2.33;;;;;;;23.87;40.36;94078.63;5032693;28;20111;-73
2020/12/28 07:57:00;;;;;;;3.70;2.30;;;;;;;24.05;39.96;94115.84;5051684;28;20171;-71
2020/12/28 07:59:38;;;;;;;4.10;2.45;;;;;;;24.17;39.55;94114.28;5041216;28;20466;-72
2020/12/28 08:02:13;;;;;;;4.78;2.60;;;;;;;24.26;39.76;94104.88;5051531;28;20124;-70
2020/12/28 08:04:39;;;;;;;3.65;2.22;;;;;;;24.29;39.40;94095.59;5063260;28;20055;-71
2020/12/28 08:07:04;;;;;;;4.00;2.33;;;;;;;24.45;39.42;94108.84;5067917;28;20111;-72
2020/12/28 08:09:29;;;;;;;3.47;2.38;;;;;;;24.49;38.80;94103.78;5050981;28;20032;-70
2020/12/28 08:12:01;;;;;;;3.95;2.38;;;;;;;24.57;38.98;94093.59;5050967;28;20036;-70
2020/12/28 08:14:27;;;;;;;3.80;2.30;;;;;;;24.64;38.76;94092.94;5052039;28;20017;-70
2020/12/28 08:16:52;;;;;;;3.60;2.38;;;;;;;24.71;38.84;94108.59;5050822;28;20049;-75
2020/12/28 08:19:25;;;;;;;3.45;2.40;;;;;;;24.76;39.01;94083.16;5051347;28;20021;-72
2020/12/28 08:21:51;;;;;;;5.57;2.65;;;;;;;24.81;38.96;94084.97;5027349;28;20464;-72
2020/12/28 08:24:19;;;;;;;4.88;2.22;;;;;;;24.77;38.72;94060.00;5038467;28;20029;-71
2020/12/28 08:26:45;;;;;;;4.03;2.17;;;;;;;24.89;38.29;94075.56;5043400;28;20461;-71
2020/12/28 08:29:10;;;;;;;4.18;2.55;;;;;;;24.81;38.36;94063.13;5049899;28;20021;-70
2020/12/28 08:31:36;;;;;;;3.88;2.55;;;;;;;24.85;38.49;94078.63;5033547;28;20462;-71
2020/12/28 08:34:08;;;;;;;3.60;2.20;;;;;;;24.91;38.45;94070.28;5049798;28;20029;-71
2020/12/28 08:36:34;;;;;;;3.33;2.30;;;;;;;24.97;38.30;94049.69;5051146;28;20029;-71
2020/12/28 08:39:13;;;;;;;3.08;2.25;;;;;;;25.00;38.15;94035.00;5049710;28;20150;-71
2020/12/28 08:41:39;;;;;;;3.88;2.30;;;;;;;25.08;37.92;94038.47;5050125;28;20025;-71
2020/12/28 08:44:04;;;;;;;3.67;2.40;;;;;;;25.10;38.14;94035.94;5049259;28;20071;-70
2020/12/28 08:46:30;;;;;;;4.38;2.58;;;;;;;24.89;38.08;94024.38;5051086;28;20036;-72
2020/12/28 08:48:55;;;;;;;3.00;2.10;;;;;;;25.16;38.15;94060.34;5049627;28;20112;-71
2020/12/28 08:51:21;;;;;;;2.90;2.15;;;;;;;25.17;37.71;94065.28;5049430;28;20025;-70
2020/12/28 08:53:50;;;;;;;4.60;2.42;;;;;;;25.20;37.67;94066.94;5051056;28;20029;-70
2020/12/28 08:56:16;;;;;;;4.83;3.23;;;;;;;25.24;37.61;94048.16;5051154;28;20513;-71
2020/12/28 08:58:42;;;;;;;4.75;2.97;;;;;;;25.25;37.60;94049.63;5050367;28;20032;-70
2020/12/28 09:01:07;;;;;;;4.30;2.58;;;;;;;25.25;37.65;94044.16;5050532;28;20013;-70
2020/12/28 09:03:36;;;;;;;4.53;3.17;;;;;;;25.27;37.50;94038.84;5050702;28;20033;-71
2020/12/28 09:06:04;;;;;;;4.45;2.70;;;;;;;25.32;37.57;94041.44;5050343;28;20247;-73
2020/12/28 09:08:30;;;;;;;4.90;2.70;;;;;;;25.36;37.40;94027.41;5050863;28;20395;-70
2020/12/28 09:10:56;;;;;;;4.97;2.85;;;;;;;25.40;37.65;94030.50;5050605;28;20033;-71
2020/12/28 09:13:21;;;;;;;4.68;2.83;;;;;;;25.41;37.72;93999.88;5049993;28;20036;-71
2020/12/28 09:15:47;;;;;;;4.82;2.90;;;;;;;25.44;37.46;94019.91;5050521;28;20041;-71
2020/12/28 09:18:12;;;;;;;5.32;2.55;;;;;;;25.46;37.27;94039.97;5049166;28;20039;-71
2020/12/28 09:20:38;;;;;;;5.80;3.03;;;;;;;25.47;37.31;94021.56;5049626;28;20090;-71
2020/12/28 09:23:03;;;;;;;6.70;3.95;;;;;;;25.49;37.36;94021.75;5048402;28;20496;-71
2020/12/28 09:25:29;;;;;;;6.25;3.00;;;;;;;25.52;37.20;94031.59;5038426;28;20082;-71
2020/12/28 09:27:54;;;;;;;5.80;3.17;;;;;;;25.54;37.39;94056.38;5049818;28;20025;-73
2020/12/28 09:30:20;;;;;;;5.88;3.20;;;;;;;25.54;37.03;94067.31;5049865;28;20036;-71
2020/12/28 09:32:45;;;;;;;4.60;2.72;;;;;;;25.54;37.00;94061.84;5049914;28;20067;-71
2020/12/28 09:35:11;;;;;;;4.05;2.60;;;;;;;25.59;37.05;94044.53;5049876;28;20021;-70
2020/12/28 09:37:36;;;;;;;6.32;3.10;;;;;;;25.61;37.02;94039.25;5050178;28;20079;-70
2020/12/28 09:40:03;;;;;;;4.82;2.58;;;;;;;25.67;37.12;94048.75;5037450;28;20037;-70
2020/12/28 09:42:29;;;;;;;8.27;3.67;;;;;;;25.68;37.31;94044.00;5048690;28;20029;-70
2020/12/28 09:44:54;;;;;;;8.32;3.45;;;;;;;25.69;37.59;94012.66;5048546;28;20033;-70
2020/12/28 09:47:20;;;;;;;8.48;3.80;;;;;;;25.71;37.54;93999.91;5049801;28;20056;-71
2020/12/28 09:49:45;;;;;;;7.32;3.70;;;;;;;25.69;37.39;93990.78;5049843;28;20025;-70
2020/12/28 09:52:11;;;;;;;7.60;3.60;;;;;;;25.73;37.48;93996.63;5049240;28;20071;-70
2020/12/28 09:54:36;;;;;;;7.00;3.50;;;;;;;25.74;37.45;93998.06;5041989;28;20032;-70
2020/12/28 09:57:06;;;;;;;6.68;3.20;;;;;;;25.75;37.07;94010.47;5049849;28;20025;-70
2020/12/28 09:59:38;;;;;;;7.75;3.25;;;;;;;25.58;37.18;93969.97;5049720;28;20056;-71
2020/12/28 10:02:04;;;;;;;8.75;3.30;;;;;;;25.82;37.20;93992.03;5047361;28;20021;-75
2020/12/28 10:04:30;;;;;;;5.13;2.92;;;;;;;25.89;37.27;93988.56;5042608;28;20041;-73
2020/12/28 10:06:58;;;;;;;9.52;3.88;;;;;;;25.85;37.00;93977.25;5039295;28;20489;-71
2020/12/28 10:09:24;;;;;;;6.90;3.75;;;;;;;26.03;36.95;93991.81;5042233;28;20029;-72
2020/12/28 10:11:50;;;;;;;5.55;3.10;;;;;;;26.10;36.75;93980.84;5039149;28;20049;-72
2020/12/28 10:14:15;;;;;;;5.28;2.95;;;;;;;26.07;36.76;93954.59;5057950;28;20444;-73
2020/12/28 10:16:41;;;;;;;5.45;3.40;;;;;;;26.07;36.93;93953.84;5028897;28;20111;-72
2020/12/28 10:19:07;;;;;;;6.22;3.20;;;;;;;25.99;36.91;93953.91;5056441;28;20391;-74
2020/12/28 10:21:32;;;;;;;6.20;3.15;;;;;;;26.05;36.95;93962.63;5051075;28;20048;-71
2020/12/28 10:23:58;;;;;;;8.10;3.50;;;;;;;26.10;36.80;93952.75;5048328;28;20025;-73
2020/12/28 10:26:25;;;;;;;6.68;3.40;;;;;;;26.07;36.81;93951.84;5048488;28;20021;-74
2020/12/28 10:28:51;;;;;;;6.40;3.17;;;;;;;26.12;36.84;93944.72;5048812;28;20025;-71
2020/12/28 10:31:17;;;;;;;6.32;3.42;;;;;;;26.11;37.09;93960.41;5043976;28;20041;-76
2020/12/28 10:33:43;;;;;;;6.05;3.40;;;;;;;26.21;36.66;93960.56;5029716;28;20100;-73
2020/12/28 10:36:24;;;;;;;6.25;2.92;;;;;;;26.08;36.30;93923.19;5056974;28;20021;-74
2020/12/28 10:38:53;;;;;;;6.32;3.00;;;;;;;26.25;36.52;93942.50;5033422;28;20021;-72
2020/12/28 10:41:29;;;;;;;6.50;3.40;;;;;;;26.20;36.63;93935.19;5022765;28;20037;-74
2020/12/28 10:43:55;;;;;;;6.03;2.95;;;;;;;26.15;36.64;93916.97;5045493;28;20100;-72
2020/12/28 10:46:20;;;;;;;4.90;3.25;;;;;;;26.17;36.43;93919.88;5056015;28;20102;-72
2020/12/28 10:48:46;;;;;;;4.85;2.90;;;;;;;26.24;36.75;93924.59;5048951;28;20025;-73
2020/12/28 10:51:11;;;;;;;5.78;2.90;;;;;;;26.24;36.79;93941.03;5047949;28;20017;-70
2020/12/28 10:53:37;;;;;;;4.90;2.78;;;;;;;26.25;36.66;93931.53;5049484;28;20021;-71
2020/12/28 10:56:03;;;;;;;5.35;2.55;;;;;;;26.27;36.77;93918.03;5049021;28;20501;-72
2020/12/28 10:58:28;;;;;;;4.70;2.80;;;;;;;26.26;36.59;93900.13;5047487;28;20036;-72
2020/12/28 11:00:55;;;;;;;5.78;2.92;;;;;;;26.28;36.49;93908.56;5043650;28;20025;-72
2020/12/28 11:03:20;;;;;;;5.65;3.10;;;;;;;26.33;36.54;93904.88;5035942;28;20083;-72
2020/12/28 11:05:46;;;;;;;4.25;2.92;;;;;;;26.33;36.51;93916.56;5052032;28;20025;-74
2020/12/28 11:08:12;;;;;;;5.82;3.47;;;;;;;26.32;36.58;93914.38;5052996;28;20467;-73
2020/12/28 11:10:38;;;;;;;4.57;2.58;;;;;;;26.38;36.33;93909.41;5053217;28;20029;-74
2020/12/28 11:13:03;;;;;;;5.32;2.88;;;;;;;26.40;36.52;93915.78;5052427;28;20036;-72
2020/12/28 11:15:28;;;;;;;5.82;2.30;;;;;;;26.42;36.33;93905.00;5050848;28;20013;-72
2020/12/28 11:17:54;;;;;;;4.15;2.80;;;;;;;26.44;36.47;93920.88;5067502;28;20075;-71
2020/12/28 11:20:19;;;;;;;7.18;2.95;;;;;;;26.43;36.31;93909.22;5052587;28;20036;-72
2020/12/28 11:22:46;;;;;;;5.07;2.63;;;;;;;26.47;36.18;93903.34;5033892;28;20029;-71
2020/12/28 11:25:11;;;;;;;4.72;2.58;;;;;;;26.32;36.45;93887.00;5037379;28;20033;-71
2020/12/28 11:27:37;;;;;;;6.00;2.90;;;;;;;26.46;36.29;93907.38;5042910;28;20039;-72
2020/12/28 11:30:03;;;;;;;5.75;2.75;;;;;;;26.47;36.17;93908.81;5050872;28;20032;-71